Time;durP1;ratioP1;P1;durP2;ratioP2;P2;SDS_P1;SDS_P2;PMS_P1;PMS_P2;Temp;Humidity;BMP_temperature;BMP_pressure;BME280_temperature;BME280_humidity;BME280_pressure;Samples;Min_cycle;Max_cycle;Signal;HPM_P1;HPM_P2
2021/04/16 00:00:54;;;;;;;2.95;1.60;;;9.10;54.30;;;;;;6185539;23;20017;-55
2021/04/16 00:03:20;;;;;;;4.07;1.50;;;9.10;54.30;;;;;;6185937;23;20032;-55
2021/04/16 00:05:46;;;;;;;6.05;1.92;;;9.10;54.20;;;;;;6186225;23;20032;-54
2021/04/16 00:08:17;;;;;;;2.45;1.55;;;9.10;54.20;;;;;;6185643;23;20296;-55
2021/04/16 00:10:47;;;;;;;5.30;1.77;;;9.10;54.30;;;;;;6185851;23;20011;-55
2021/04/16 00:13:14;;;;;;;4.57;1.40;;;9.10;54.20;;;;;;6186081;23;20076;-55
2021/04/16 00:15:41;;;;;;;3.72;1.67;;;9.10;54.20;;;;;;6185722;23;20052;-54
2021/04/16 00:18:13;;;;;;;3.95;1.80;;;9.10;54.20;;;;;;6185873;23;20060;-55
2021/04/16 00:20:39;;;;;;;2.40;1.80;;;9.10;54.20;;;;;;6185221;23;20308;-55
2021/04/16 00:23:05;;;;;;;1.77;1.17;;;9.10;54.30;;;;;;6185824;23;20420;-55
2021/04/16 00:25:32;;;;;;;6.00;1.90;;;9.10;54.30;;;;;;6185757;23;20028;-55
2021/04/16 00:27:59;;;;;;;2.13;1.33;;;9.00;54.30;;;;;;6185592;23;20055;-54
2021/04/16 00:30:33;;;;;;;3.53;1.50;;;9.00;54.20;;;;;;6184786;23;20005;-54
2021/04/16 00:32:59;;;;;;;3.10;1.85;;;9.00;54.20;;;;;;6185295;23;20405;-54
2021/04/16 00:35:24;;;;;;;3.28;1.55;;;9.10;54.30;;;;;;6185483;23;20042;-54
2021/04/16 00:37:51;;;;;;;1.90;1.48;;;9.00;54.20;;;;;;6185733;23;20005;-54
2021/04/16 00:40:25;;;;;;;2.75;1.40;;;9.10;54.20;;;;;;6184847;23;20008;-54
2021/04/16 00:42:53;;;;;;;2.47;1.60;;;9.00;54.20;;;;;;6185823;23;20005;-55
2021/04/16 00:45:19;;;;;;;2.42;1.33;;;9.00;54.20;;;;;;6185585;23;20072;-54
2021/04/16 00:47:45;;;;;;;1.98;1.42;;;9.00;54.70;;;;;;6185447;23;20088;-54
2021/04/16 00:50:15;;;;;;;8.98;1.73;;;9.00;54.80;;;;;;6185346;23;20048;-55
2021/04/16 00:52:42;;;;;;;1.85;1.45;;;9.00;54.20;;;;;;6185660;23;20027;-55
2021/04/16 00:55:08;;;;;;;2.35;1.30;;;9.00;54.20;;;;;;6185385;23;20067;-54
2021/04/16 00:57:34;;;;;;;5.40;1.50;;;9.00;54.20;;;;;;6185366;23;20001;-55
2021/04/16 01:00:00;;;;;;;1.35;1.25;;;9.00;54.20;;;;;;6185458;23;20393;-55
2021/04/16 01:02:26;;;;;;;2.20;1.67;;;9.00;54.20;;;;;;6187392;23;20017;-54
2021/04/16 01:04:52;;;;;;;2.83;1.42;;;9.00;54.20;;;;;;6187142;23;20092;-54
2021/04/16 01:07:20;;;;;;;6.30;1.55;;;9.00;54.30;;;;;;6187747;23;20005;-54
2021/04/16 01:09:47;;;;;;;3.28;1.98;;;9.00;54.20;;;;;;6187366;23;20001;-54
2021/04/16 01:12:14;;;;;;;3.75;1.33;;;9.00;54.90;;;;;;6187414;23;20488;-55
2021/04/16 01:14:44;;;;;;;2.55;1.35;;;9.00;54.20;;;;;;6186876;23;20008;-55
2021/04/16 01:17:11;;;;;;;4.78;1.58;;;9.00;54.30;;;;;;6188022;23;20100;-54
2021/04/16 01:20:06;;;;;;;2.42;1.27;;;9.00;54.30;;;;;;6186752;23;20095;-55
2021/04/16 01:22:36;;;;;;;3.25;1.40;;;9.00;54.40;;;;;;6187733;23;20017;-55
2021/04/16 01:25:05;;;;;;;3.20;1.85;;;9.00;54.30;;;;;;6187044;23;19997;-55
2021/04/16 01:27:31;;;;;;;3.05;1.15;;;9.00;54.30;;;;;;6187008;23;20005;-54
2021/04/16 01:30:06;;;;;;;3.17;1.70;;;8.90;54.30;;;;;;6187041;23;20005;-54
2021/04/16 01:32:32;;;;;;;4.68;1.60;;;8.90;54.30;;;;;;6187432;23;20001;-55
2021/04/16 01:34:58;;;;;;;5.07;1.27;;;9.00;54.40;;;;;;6210466;23;20031;-55
2021/04/16 01:37:27;;;;;;;2.22;1.42;;;8.90;54.30;;;;;;6187621;23;20059;-55
2021/04/16 01:39:53;;;;;;;2.25;1.50;;;8.90;54.30;;;;;;6186598;23;20008;-55
2021/04/16 01:42:20;;;;;;;3.30;1.52;;;8.90;54.40;;;;;;6187257;23;20100;-55
2021/04/16 01:44:47;;;;;;;5.07;1.60;;;8.90;54.40;;;;;;6187285;23;19997;-54
2021/04/16 01:47:14;;;;;;;3.35;1.50;;;8.90;54.40;;;;;;6186873;23;20001;-55
2021/04/16 01:49:46;;;;;;;2.58;1.52;;;8.90;54.40;;;;;;6186708;23;20032;-55
2021/04/16 01:52:16;;;;;;;1.52;1.42;;;8.90;54.40;;;;;;6186994;23;20008;-54
2021/04/16 01:54:44;;;;;;;4.85;1.70;;;8.90;54.40;;;;;;6187148;23;20043;-55
2021/04/16 01:57:20;;;;;;;3.15;1.20;;;8.90;54.40;;;;;;6186715;23;20448;-55
2021/04/16 01:59:47;;;;;;;2.13;1.15;;;8.80;54.40;;;;;;6186476;23;20423;-55
2021/04/16 02:02:19;;;;;;;1.60;1.42;;;8.90;54.40;;;;;;6186861;23;20013;-55
2021/04/16 02:04:45;;;;;;;5.95;1.60;;;8.90;54.50;;;;;;6186932;23;20016;-54
2021/04/16 02:07:11;;;;;;;2.17;1.30;;;8.90;54.50;;;;;;6186941;23;20021;-54
2021/04/16 02:09:38;;;;;;;3.67;1.88;;;8.90;54.50;;;;;;6186782;23;20073;-54
2021/04/16 02:12:07;;;;;;;2.35;1.63;;;8.90;54.50;;;;;;6186699;23;20004;-55
2021/04/16 02:14:33;;;;;;;3.10;1.50;;;8.90;54.50;;;;;;6186931;23;20001;-55
2021/04/16 02:17:02;;;;;;;2.08;1.45;;;8.80;54.50;;;;;;6187170;23;20028;-54
2021/04/16 02:19:29;;;;;;;2.13;1.65;;;8.80;54.50;;;;;;6185847;23;20011;-54
2021/04/16 02:21:55;;;;;;;2.67;1.40;;;8.80;54.50;;;;;;6186680;23;20405;-54
2021/04/16 02:24:22;;;;;;;3.22;1.60;;;8.80;54.50;;;;;;6186815;23;20005;-55
2021/04/16 02:26:48;;;;;;;1.60;1.50;;;8.80;54.50;;;;;;6186659;23;20044;-54
2021/04/16 02:29:17;;;;;;;3.80;1.75;;;8.80;54.60;;;;;;6186471;23;20009;-55
2021/04/16 02:31:45;;;;;;;3.22;1.60;;;8.80;54.50;;;;;;6186647;23;20421;-55
2021/04/16 02:34:12;;;;;;;1.48;1.25;;;8.80;54.50;;;;;;6186382;23;20309;-55
2021/04/16 02:36:38;;;;;;;5.90;1.60;;;8.80;54.50;;;;;;6186843;23;20012;-55
2021/04/16 02:39:06;;;;;;;1.85;1.63;;;8.80;54.60;;;;;;6186338;23;20005;-54
2021/04/16 02:41:32;;;;;;;3.97;1.77;;;8.70;54.60;;;;;;6186504;23;20017;-54
2021/04/16 02:43:57;;;;;;;4.32;1.80;;;8.80;54.60;;;;;;6186809;23;20043;-55
2021/04/16 02:46:23;;;;;;;2.83;1.70;;;8.80;55.20;;;;;;6183089;23;20093;-55
2021/04/16 02:48:49;;;;;;;2.53;1.60;;;8.70;54.60;;;;;;6186448;23;20420;-54
2021/04/16 02:51:14;;;;;;;4.10;2.15;;;8.80;55.20;;;;;;6186181;23;20475;-54
2021/04/16 02:53:40;;;;;;;1.92;1.73;;;8.80;54.60;;;;;;6186684;23;20009;-54
2021/04/16 02:56:05;;;;;;;3.15;1.60;;;8.80;54.70;;;;;;6186703;23;20040;-54
2021/04/16 02:58:31;;;;;;;9.07;1.85;;;8.70;54.60;;;;;;6186180;23;20300;-54
2021/04/16 03:00:57;;;;;;;4.72;1.67;;;8.70;54.70;;;;;;6186348;23;20035;-55
2021/04/16 03:03:23;;;;;;;3.22;2.08;;;8.70;54.60;;;;;;6186598;23;20064;-54
2021/04/16 03:05:49;;;;;;;4.07;2.10;;;8.70;54.70;;;;;;6186603;23;20412;-54
2021/04/16 03:08:14;;;;;;;2.00;1.38;;;8.70;54.70;;;;;;6186418;23;20004;-54
2021/04/16 03:10:40;;;;;;;2.63;2.03;;;8.70;54.70;;;;;;6186362;23;20328;-54
2021/04/16 03:13:06;;;;;;;3.15;1.98;;;8.70;54.70;;;;;;6186447;23;20039;-54
2021/04/16 03:15:33;;;;;;;4.30;2.05;;;8.70;54.70;;;;;;6186357;23;20416;-55
2021/04/16 03:17:59;;;;;;;3.60;1.95;;;8.70;54.70;;;;;;6186352;23;20084;-54
2021/04/16 03:20:25;;;;;;;4.30;1.65;;;8.70;54.70;;;;;;6185848;23;20009;-55
2021/04/16 03:22:51;;;;;;;3.08;2.30;;;8.70;54.70;;;;;;6185951;23;20468;-54
2021/04/16 03:25:17;;;;;;;3.40;1.92;;;8.70;54.70;;;;;;6186071;23;20001;-55
2021/04/16 03:27:43;;;;;;;3.95;1.90;;;8.70;54.70;;;;;;6185993;23;20009;-55
2021/04/16 03:30:13;;;;;;;4.78;2.88;;;8.70;54.70;;;;;;6186016;23;19997;-54
2021/04/16 03:32:39;;;;;;;2.92;1.67;;;8.70;54.80;;;;;;6186314;23;20001;-54
2021/04/16 03:35:06;;;;;;;2.17;1.70;;;8.70;54.70;;;;;;6186479;23;20011;-55
2021/04/16 03:37:32;;;;;;;5.80;2.17;;;8.60;54.70;;;;;;6185605;23;20059;-54
2021/04/16 03:39:57;;;;;;;3.88;2.10;;;8.70;54.80;;;;;;6186068;23;20009;-54
2021/04/16 03:42:23;;;;;;;2.72;2.08;;;8.60;54.80;;;;;;6185698;23;20371;-54
2021/04/16 03:44:48;;;;;;;8.65;2.35;;;8.60;54.80;;;;;;6185719;23;20001;-55
2021/04/16 03:47:16;;;;;;;4.00;1.80;;;8.60;54.80;;;;;;6186107;23;20051;-54
2021/04/16 03:49:43;;;;;;;3.88;1.83;;;8.60;54.80;;;;;;6185568;23;20357;-55
2021/04/16 03:52:08;;;;;;;2.92;2.17;;;8.60;54.80;;;;;;6186152;23;20011;-54
2021/04/16 03:54:34;;;;;;;2.92;1.90;;;8.60;54.80;;;;;;6185750;23;20079;-55
2021/04/16 03:57:00;;;;;;;2.60;1.80;;;8.60;54.80;;;;;;6185570;23;20005;-55
2021/04/16 03:59:26;;;;;;;3.83;1.92;;;8.60;54.90;;;;;;6185247;23;20005;-55
2021/04/16 04:01:52;;;;;;;3.65;2.55;;;8.60;54.90;;;;;;6185934;23;20020;-54
2021/04/16 04:04:19;;;;;;;5.35;2.35;;;8.60;54.90;;;;;;6185916;23;20001;-54
2021/04/16 04:06:47;;;;;;;2.88;1.90;;;8.60;54.80;;;;;;6186101;23;20011;-54
2021/04/16 04:09:13;;;;;;;4.65;1.90;;;8.60;54.90;;;;;;6185206;23;20001;-55
2021/04/16 04:11:39;;;;;;;3.05;1.95;;;8.50;54.80;;;;;;6185969;23;20004;-54
2021/04/16 04:14:04;;;;;;;7.18;2.22;;;8.60;54.90;;;;;;6209315;23;20012;-55
2021/04/16 04:16:30;;;;;;;6.80;2.00;;;8.60;54.90;;;;;;6185830;23;20039;-54
2021/04/16 04:18:56;;;;;;;2.38;1.77;;;8.60;54.90;;;;;;6185294;23;20017;-55
2021/04/16 04:21:22;;;;;;;3.78;1.92;;;8.60;54.90;;;;;;6185325;23;20015;-55
2021/04/16 04:23:48;;;;;;;4.72;2.25;;;8.60;55.00;;;;;;6185093;23;20001;-54
2021/04/16 04:26:14;;;;;;;3.38;2.20;;;8.60;55.00;;;;;;6185617;23;20001;-54
2021/04/16 04:28:40;;;;;;;5.78;2.03;;;8.60;55.00;;;;;;6185157;23;20424;-55
2021/04/16 04:31:05;;;;;;;3.65;1.60;;;8.60;55.00;;;;;;6185472;23;20407;-54
2021/04/16 04:33:31;;;;;;;5.38;2.20;;;8.60;55.00;;;;;;6185411;23;20009;-54
2021/04/16 04:35:56;;;;;;;6.90;2.10;;;8.60;55.00;;;;;;6185666;23;20018;-54
2021/04/16 04:38:22;;;;;;;5.95;2.47;;;8.60;54.90;;;;;;6185081;23;20001;-55
2021/04/16 04:40:50;;;;;;;3.88;1.98;;;8.60;55.00;;;;;;6185096;23;20009;-54
2021/04/16 04:43:16;;;;;;;3.03;1.90;;;8.60;55.00;;;;;;6185872;23;20017;-55
2021/04/16 04:45:41;;;;;;;4.68;2.47;;;8.60;55.00;;;;;;6185991;23;20005;-54
2021/04/16 04:48:08;;;;;;;3.90;2.45;;;8.50;54.90;;;;;;6185455;23;19997;-54
2021/04/16 04:50:33;;;;;;;3.72;2.20;;;8.60;55.00;;;;;;6185626;23;20098;-54
2021/04/16 04:52:59;;;;;;;3.88;2.22;;;8.50;55.00;;;;;;6185356;23;20385;-55
2021/04/16 04:55:28;;;;;;;7.03;1.92;;;8.50;54.90;;;;;;6185266;23;20064;-54
2021/04/16 04:57:54;;;;;;;4.28;2.10;;;8.50;55.00;;;;;;6185383;23;20009;-54
2021/04/16 05:00:20;;;;;;;4.03;2.35;;;8.50;55.00;;;;;;6185164;23;20427;-54
2021/04/16 05:02:46;;;;;;;6.40;2.47;;;8.60;55.00;;;;;;6185378;23;20005;-54
2021/04/16 05:05:14;;;;;;;4.07;2.72;;;8.50;55.00;;;;;;6209143;23;20309;-55
2021/04/16 05:07:40;;;;;;;4.57;2.10;;;8.50;54.90;;;;;;6185405;23;20479;-56
2021/04/16 05:10:06;;;;;;;6.18;2.38;;;8.60;55.00;;;;;;6183739;23;20001;-56
2021/04/16 05:12:33;;;;;;;5.22;2.72;;;8.60;54.90;;;;;;6185737;23;20004;-56
2021/04/16 05:14:58;;;;;;;5.57;2.60;;;8.60;55.00;;;;;;6185725;23;20005;-56
2021/04/16 05:17:24;;;;;;;5.53;2.13;;;8.60;54.80;;;;;;6185843;23;20008;-56
2021/04/16 05:19:50;;;;;;;6.43;2.03;;;8.60;54.80;;;;;;6184668;23;20021;-56
2021/04/16 05:22:15;;;;;;;2.90;2.08;;;8.60;54.80;;;;;;6185326;23;20302;-56
2021/04/16 05:24:41;;;;;;;4.00;2.25;;;8.60;54.70;;;;;;6185019;23;20001;-55
2021/04/16 05:27:10;;;;;;;7.13;2.78;;;8.60;54.70;;;;;;6185430;23;20412;-56
2021/04/16 05:29:36;;;;;;;4.20;2.63;;;8.60;54.80;;;;;;6184763;23;20029;-56
2021/04/16 05:32:03;;;;;;;8.45;2.90;;;8.60;54.80;;;;;;6185403;23;20012;-56
2021/04/16 05:34:29;;;;;;;5.28;2.67;;;8.70;54.70;;;;;;6185354;23;19997;-56
2021/04/16 05:36:55;;;;;;;6.30;2.63;;;8.70;54.70;;;;;;6185623;23;20012;-56
2021/04/16 05:39:21;;;;;;;5.38;2.85;;;8.80;54.60;;;;;;6184890;23;20063;-56
2021/04/16 05:41:46;;;;;;;4.95;2.97;;;8.90;54.40;;;;;;6185207;23;20108;-56
2021/04/16 05:44:12;;;;;;;3.47;2.13;;;9.00;54.30;;;;;;6185207;23;20409;-56
2021/04/16 05:46:38;;;;;;;5.15;3.17;;;9.00;54.20;;;;;;6185322;23;20005;-56
2021/04/16 05:49:04;;;;;;;3.88;2.38;;;9.10;54.00;;;;;;6186964;23;20308;-56
2021/04/16 05:51:31;;;;;;;7.85;2.88;;;9.10;53.80;;;;;;6187006;23;20009;-55
2021/04/16 05:53:56;;;;;;;4.35;2.80;;;9.10;53.70;;;;;;6186972;23;20305;-56
2021/04/16 05:56:22;;;;;;;3.95;2.38;;;9.20;53.70;;;;;;6187001;23;19997;-55
2021/04/16 05:58:48;;;;;;;7.40;3.40;;;9.20;53.60;;;;;;6186720;23;20009;-56
2021/04/16 06:01:14;;;;;;;6.10;2.35;;;9.20;53.50;;;;;;6186677;23;20092;-56
2021/04/16 06:03:42;;;;;;;4.65;2.70;;;9.30;53.40;;;;;;6187213;23;20005;-55
2021/04/16 06:06:08;;;;;;;6.20;3.30;;;9.30;53.40;;;;;;6187170;23;20005;-56
2021/04/16 06:08:33;;;;;;;3.38;2.60;;;9.30;53.40;;;;;;6186778;23;20008;-55
2021/04/16 06:11:00;;;;;;;4.65;2.85;;;9.30;53.50;;;;;;6186737;23;20072;-55
2021/04/16 06:13:26;;;;;;;5.20;3.20;;;9.40;53.40;;;;;;6187092;23;20028;-55
2021/04/16 06:15:52;;;;;;;5.18;3.03;;;9.40;53.30;;;;;;6186970;23;20001;-55
2021/04/16 06:18:19;;;;;;;4.22;2.72;;;9.50;53.20;;;;;;6186904;23;20012;-55
2021/04/16 06:20:44;;;;;;;4.45;2.45;;;9.60;53.10;;;;;;6186093;23;20092;-55
2021/04/16 06:23:10;;;;;;;5.00;3.10;;;9.60;53.00;;;;;;6186878;23;20420;-55
2021/04/16 06:25:36;;;;;;;7.90;3.20;;;9.70;53.00;;;;;;6186882;23;20005;-55
2021/04/16 06:28:03;;;;;;;4.68;3.25;;;9.70;52.80;;;;;;6186940;23;20412;-55
2021/04/16 06:30:30;;;;;;;4.22;3.10;;;9.80;52.80;;;;;;6184008;23;20448;-55
2021/04/16 06:33:07;;;;;;;5.10;3.20;;;9.80;52.70;;;;;;6186892;23;20009;-55
2021/04/16 06:35:35;;;;;;;6.30;3.65;;;9.90;52.80;;;;;;6186456;23;20001;-55
2021/04/16 06:38:01;;;;;;;3.08;2.45;;;9.90;52.80;;;;;;6186852;23;20013;-55
2021/04/16 06:40:29;;;;;;;6.80;3.00;;;10.00;52.80;;;;;;6186098;23;20099;-55
2021/04/16 06:42:55;;;;;;;4.43;2.78;;;10.00;52.70;;;;;;6186347;23;20369;-55
2021/04/16 06:45:26;;;;;;;7.47;3.35;;;10.10;52.80;;;;;;6186683;23;20012;-55
2021/04/16 06:47:59;;;;;;;5.10;3.03;;;10.10;52.80;;;;;;6186784;23;20305;-55
2021/04/16 06:50:33;;;;;;;6.82;3.65;;;10.20;52.80;;;;;;6186153;23;20005;-55
2021/04/16 06:53:13;;;;;;;7.22;3.10;;;10.20;52.70;;;;;;6186542;23;20032;-55
2021/04/16 06:55:58;;;;;;;5.32;3.00;;;10.30;52.70;;;;;;6186704;23;20392;-55
2021/04/16 06:58:45;;;;;;;5.68;3.38;;;10.40;52.70;;;;;;6185736;23;20401;-55
2021/04/16 07:01:20;;;;;;;6.32;2.97;;;10.40;52.60;;;;;;6186228;23;20048;-55
2021/04/16 07:04:05;;;;;;;5.65;3.33;;;10.40;52.80;;;;;;6187127;23;20344;-55
2021/04/16 07:06:31;;;;;;;5.25;3.45;;;10.50;52.90;;;;;;6184727;23;20012;-55
2021/04/16 07:09:04;;;;;;;5.05;3.17;;;10.50;52.90;;;;;;6186033;23;20443;-55
2021/04/16 07:11:41;;;;;;;5.68;3.35;;;10.60;53.00;;;;;;6186011;23;20004;-55
2021/04/16 07:14:26;;;;;;;6.47;3.55;;;10.60;53.10;;;;;;6186673;23;20047;-55
2021/04/16 07:16:51;;;;;;;6.60;3.63;;;10.60;53.10;;;;;;6186602;23;20012;-55
2021/04/16 07:19:23;;;;;;;4.10;3.05;;;10.70;53.20;;;;;;6185694;23;20309;-55
2021/04/16 07:21:59;;;;;;;5.35;2.95;;;10.60;53.10;;;;;;6186091;23;20020;-55
2021/04/16 07:24:25;;;;;;;3.63;2.75;;;10.70;53.20;;;;;;6186526;23;20097;-55
2021/04/16 07:26:53;;;;;;;6.68;3.72;;;10.70;53.10;;;;;;6186420;23;20021;-55
2021/04/16 07:29:46;;;;;;;5.13;2.70;;;10.70;53.10;;;;;;6185567;23;20092;-55
2021/04/16 07:32:13;;;;;;;6.43;3.13;;;10.70;53.00;;;;;;6186292;23;20005;-55
2021/04/16 07:34:47;;;;;;;6.40;3.15;;;10.70;53.00;;;;;;6186153;23;20076;-55
2021/04/16 07:37:17;;;;;;;10.25;2.83;;;10.70;53.10;;;;;;6186028;23;20003;-55
2021/04/16 07:39:50;;;;;;;5.47;3.00;;;10.80;53.20;;;;;;6185710;23;20009;-55
2021/04/16 07:42:34;;;;;;;6.55;3.55;;;10.70;53.10;;;;;;6185802;23;20321;-55
2021/04/16 07:45:16;;;;;;;4.40;2.90;;;10.70;53.10;;;;;;6186185;23;20092;-55
2021/04/16 07:47:42;;;;;;;6.05;3.22;;;10.70;53.10;;;;;;6186311;23;20005;-55
2021/04/16 07:50:30;;;;;;;5.00;2.85;;;10.80;53.20;;;;;;6185536;23;20005;-55
2021/04/16 07:52:57;;;;;;;4.88;2.95;;;10.70;53.10;;;;;;6185758;23;20357;-55
2021/04/16 07:55:22;;;;;;;5.65;2.90;;;10.80;53.20;;;;;;6185819;23;20005;-56
2021/04/16 07:57:51;;;;;;;5.95;3.90;;;10.80;53.20;;;;;;6186314;23;20011;-55
2021/04/16 08:00:23;;;;;;;4.18;2.67;;;10.80;53.20;;;;;;6185165;23;20385;-55
2021/04/16 08:03:22;;;;;;;3.75;2.50;;;10.80;53.20;;;;;;6185774;23;20408;-55
2021/04/16 08:06:11;;;;;;;4.43;2.67;;;10.80;53.30;;;;;;6182002;23;20004;-55
2021/04/16 08:08:45;;;;;;;4.03;3.08;;;10.80;53.30;;;;;;6185188;23;20001;-55
2021/04/16 08:11:15;;;;;;;5.25;3.15;;;10.90;53.40;;;;;;6185054;23;20058;-55
2021/04/16 08:13:44;;;;;;;4.47;2.63;;;10.90;53.40;;;;;;6185458;23;20008;-55
2021/04/16 08:16:41;;;;;;;6.32;2.80;;;10.80;53.30;;;;;;6185676;23;20009;-55
2021/04/16 08:19:11;;;;;;;5.15;3.22;;;10.90;53.40;;;;;;6185399;23;20133;-55
2021/04/16 08:21:44;;;;;;;6.10;2.88;;;10.90;53.40;;;;;;6185334;23;20009;-55
2021/04/16 08:24:34;;;;;;;4.45;2.83;;;10.80;53.40;;;;;;6185721;23;20015;-54
2021/04/16 08:27:21;;;;;;;5.85;2.65;;;10.90;53.50;;;;;;6185853;23;20015;-55
2021/04/16 08:29:53;;;;;;;7.03;3.03;;;10.90;53.50;;;;;;6185582;23;20008;-55
2021/04/16 08:32:52;;;;;;;6.68;3.17;;;10.90;53.40;;;;;;6185212;23;20012;-55
2021/04/16 08:35:31;;;;;;;4.80;3.15;;;10.90;53.50;;;;;;6123247;23;20106;-55
2021/04/16 08:38:07;;;;;;;4.13;2.75;;;10.90;53.50;;;;;;6123534;23;20450;-55
2021/04/16 08:40:39;;;;;;;9.50;2.92;;;10.90;53.50;;;;;;6122935;23;20017;-55
2021/04/16 08:43:08;;;;;;;5.57;2.60;;;10.90;53.50;;;;;;6123432;23;20002;-55
2021/04/16 08:45:38;;;;;;;8.80;3.03;;;10.90;53.60;;;;;;6123335;23;20465;-55
2021/04/16 08:48:19;;;;;;;5.97;2.88;;;10.90;53.70;;;;;;6123601;23;20017;-56
2021/04/16 08:50:49;;;;;;;10.15;2.40;;;10.90;53.70;;;;;;6123341;23;20346;-55
2021/04/16 08:53:15;;;;;;;4.17;2.93;;;10.90;53.70;;;;;;6123026;23;20101;-55
2021/04/16 08:55:51;;;;;;;4.68;2.67;;;10.80;53.60;;;;;;6123419;23;20010;-55
2021/04/16 08:58:32;;;;;;;4.93;2.95;;;10.90;53.70;;;;;;6123381;23;20326;-55
2021/04/16 09:01:09;;;;;;;3.85;2.60;;;10.80;53.70;;;;;;6123223;23;20130;-55
2021/04/16 09:03:50;;;;;;;4.78;2.78;;;10.80;53.70;;;;;;6123100;23;20345;-55
2021/04/16 09:06:22;;;;;;;6.20;2.60;;;10.80;53.70;;;;;;6098819;23;20410;-55
2021/04/16 09:08:49;;;;;;;5.43;3.33;;;10.80;53.70;;;;;;6123181;23;20033;-55
2021/04/16 09:11:44;;;;;;;4.10;3.03;;;10.80;53.90;;;;;;6132427;23;20009;-55
2021/04/16 09:14:16;;;;;;;8.13;2.75;;;10.70;53.70;;;;;;6185084;23;19997;-55
2021/04/16 09:16:56;;;;;;;6.07;3.15;;;10.70;53.80;;;;;;6185214;23;20140;-55
2021/04/16 09:19:25;;;;;;;4.70;2.88;;;10.70;53.90;;;;;;6185131;23;20013;-55
2021/04/16 09:22:03;;;;;;;5.65;2.72;;;10.70;54.00;;;;;;6210076;23;20017;-55
2021/04/16 09:24:52;;;;;;;6.20;2.97;;;10.70;54.00;;;;;;6187387;23;19998;-56
2021/04/16 09:27:38;;;;;;;3.05;2.45;;;10.60;53.80;;;;;;6186994;23;19997;-55
2021/04/16 09:30:06;;;;;;;6.10;2.83;;;10.60;53.80;;;;;;6187290;23;20016;-55
2021/04/16 09:32:32;;;;;;;7.45;3.15;;;10.60;53.70;;;;;;6187418;23;20091;-55
2021/04/16 09:34:59;;;;;;;2.83;2.08;;;10.60;54.40;;;;;;6186607;23;20028;-55
2021/04/16 09:37:29;;;;;;;3.72;2.70;;;10.60;53.70;;;;;;6187519;23;20077;-55
2021/04/16 09:40:05;;;;;;;5.22;2.70;;;10.60;53.70;;;;;;6186819;23;20401;-56
2021/04/16 09:42:41;;;;;;;2.97;2.45;;;10.60;53.70;;;;;;6187319;23;20060;-55
2021/04/16 09:45:33;;;;;;;5.20;2.55;;;10.50;53.80;;;;;;6186789;23;20416;-55
2021/04/16 09:48:05;;;;;;;3.75;2.60;;;10.50;53.90;;;;;;6186763;23;20088;-56
2021/04/16 09:50:39;;;;;;;3.40;2.30;;;10.50;53.80;;;;;;6186595;23;20006;-56
2021/04/16 09:53:37;;;;;;;4.60;2.38;;;10.50;53.90;;;;;;6187240;23;20001;-55
2021/04/16 09:56:08;;;;;;;4.85;2.58;;;10.50;54.00;;;;;;6124768;23;20033;-55
2021/04/16 09:58:35;;;;;;;7.30;2.50;;;10.50;54.10;;;;;;6124462;23;20002;-55
2021/04/16 10:01:10;;;;;;;4.43;2.38;;;10.50;54.00;;;;;;6124832;23;20060;-56
2021/04/16 10:03:49;;;;;;;4.13;2.47;;;10.50;54.10;;;;;;6124769;23;20013;-55
2021/04/16 10:06:34;;;;;;;3.10;2.20;;;10.40;53.90;;;;;;6124558;23;20006;-55
2021/04/16 10:09:12;;;;;;;3.30;2.47;;;10.50;54.00;;;;;;6124564;23;20006;-56
2021/04/16 10:12:05;;;;;;;5.15;2.35;;;10.50;54.10;;;;;;6124672;23;20169;-55
2021/04/16 10:14:36;;;;;;;4.72;2.55;;;10.40;54.00;;;;;;6124501;23;20512;-55
2021/04/16 10:17:11;;;;;;;4.05;2.78;;;10.40;53.90;;;;;;6124221;23;20111;-55
2021/04/16 10:20:08;;;;;;;6.82;2.78;;;10.40;53.90;;;;;;6124256;23;20014;-56
2021/04/16 10:22:36;;;;;;;4.43;2.15;;;10.40;53.90;;;;;;6124525;23;20014;-55
2021/04/16 11:19:05;;;;;;;4.30;2.40;;;10.40;54.00;;;;;;6186094;23;20012;-55
2021/04/16 12:40:24;;;;;;;9.07;2.65;;;10.50;53.90;;;;;;6185660;23;20025;-56
2021/04/16 12:42:50;;;;;;;9.23;2.38;;;10.50;54.10;;;;;;6185788;23;20308;-55
2021/04/16 12:45:17;;;;;;;5.57;2.80;;;10.50;54.00;;;;;;6185933;23;20301;-55
2021/04/16 12:47:43;;;;;;;3.65;2.30;;;10.50;53.80;;;;;;6185593;23;20389;-56
2021/04/16 12:50:11;;;;;;;3.72;2.67;;;10.50;53.90;;;;;;6184883;23;20047;-55
2021/04/16 12:52:36;;;;;;;5.13;2.63;;;10.50;53.70;;;;;;6185448;23;20001;-55
2021/04/16 12:55:02;;;;;;;3.15;2.17;;;10.50;53.80;;;;;;6185286;23;20024;-55
2021/04/16 12:57:38;;;;;;;2.38;2.00;;;10.50;53.60;;;;;;6186972;23;20048;-55
2021/04/16 13:00:09;;;;;;;3.42;2.47;;;10.50;53.50;;;;;;6187039;23;20411;-55
2021/04/16 13:02:35;;;;;;;10.52;2.75;;;10.50;53.60;;;;;;6187668;23;20017;-56
2021/04/16 13:05:07;;;;;;;17.10;3.40;;;10.50;53.70;;;;;;6187626;23;20002;-55
2021/04/16 13:07:33;;;;;;;3.65;2.25;;;10.50;53.60;;;;;;6187756;23;20032;-55
2021/04/16 13:09:58;;;;;;;3.47;2.08;;;10.50;53.60;;;;;;6187294;23;20386;-55
2021/04/16 13:12:24;;;;;;;6.40;2.83;;;10.50;54.30;;;;;;6187837;23;20337;-55
2021/04/16 13:14:50;;;;;;;3.58;2.25;;;10.50;53.80;;;;;;6187468;23;20072;-55
2021/04/16 13:17:21;;;;;;;5.82;2.75;;;10.50;53.70;;;;;;6187323;23;20009;-56
2021/04/16 13:19:47;;;;;;;;;;;10.50;53.40;;;;;;6187453;23;20063;-55
2021/04/16 13:22:15;;;;;;;8.23;2.30;;;10.50;53.40;;;;;;6187583;23;19908;-55
2021/04/16 13:24:43;;;;;;;2.97;2.38;;;10.50;53.40;;;;;;6187631;23;19997;-55
2021/04/16 13:27:11;;;;;;;2.38;1.80;;;10.50;53.50;;;;;;6187055;23;20349;-55
2021/04/16 13:29:38;;;;;;;7.63;2.50;;;10.50;53.60;;;;;;6186935;23;20005;-56
2021/04/16 13:32:09;;;;;;;4.10;2.72;;;10.50;53.50;;;;;;6187648;23;20005;-55
2021/04/16 13:34:38;;;;;;;4.30;2.30;;;10.50;53.70;;;;;;6187117;23;20008;-55
2021/04/16 13:37:04;;;;;;;5.85;2.40;;;10.50;53.50;;;;;;6187122;23;20036;-55
2021/04/16 13:39:29;;;;;;;4.47;2.80;;;10.50;53.40;;;;;;6186958;23;20001;-55
2021/04/16 13:41:55;;;;;;;3.30;2.40;;;10.50;53.40;;;;;;6187287;23;20024;-55
2021/04/16 13:44:21;;;;;;;4.72;2.75;;;10.50;53.50;;;;;;6186961;23;20370;-55
2021/04/16 13:46:48;;;;;;;3.67;2.58;;;10.50;53.50;;;;;;6187050;23;20408;-55
2021/04/16 13:49:19;;;;;;;3.88;2.33;;;10.50;54.10;;;;;;6186958;23;20017;-56
2021/04/16 13:51:44;;;;;;;;;;;10.50;53.80;;;;;;6187965;23;20408;-56
2021/04/16 13:54:12;;;;;;;3.08;2.55;;;10.50;53.60;;;;;;6186929;23;19900;-56
2021/04/16 13:56:37;;;;;;;3.88;2.17;;;10.50;53.70;;;;;;6187141;23;20192;-55
2021/04/16 13:59:03;;;;;;;3.13;2.15;;;10.50;53.80;;;;;;6186668;23;20009;-55
2021/04/16 14:01:29;;;;;;;2.90;2.17;;;10.50;53.70;;;;;;6186650;23;20009;-56
2021/04/16 14:04:00;;;;;;;2.78;2.50;;;10.50;53.70;;;;;;6186812;23;20080;-56
2021/04/16 14:06:34;;;;;;;4.25;2.38;;;10.50;53.60;;;;;;6187299;23;20088;-55
2021/04/16 14:09:04;;;;;;;3.90;2.47;;;10.50;53.70;;;;;;6185582;23;20001;-56
2021/04/16 14:11:31;;;;;;;2.72;2.10;;;10.50;53.60;;;;;;6187535;23;20008;-55
2021/04/16 14:13:59;;;;;;;5.47;2.33;;;10.50;53.50;;;;;;6187317;23;20073;-56
2021/04/16 14:16:29;;;;;;;4.82;2.65;;;10.50;53.60;;;;;;6186851;23;20104;-55
2021/04/16 14:18:58;;;;;;;4.95;2.70;;;10.50;53.60;;;;;;6186179;23;20316;-56
2021/04/16 14:21:24;;;;;;;3.47;2.28;;;10.50;53.70;;;;;;6186516;23;20435;-56
2021/04/16 14:23:51;;;;;;;4.45;2.88;;;10.50;53.60;;;;;;6186408;23;20084;-55
2021/04/16 14:26:20;;;;;;;6.03;2.58;;;10.50;53.60;;;;;;6186514;23;20041;-55
2021/04/16 14:28:46;;;;;;;4.00;2.45;;;10.50;53.70;;;;;;6185261;23;19997;-55
2021/04/16 14:31:13;;;;;;;2.78;2.33;;;10.50;53.50;;;;;;6186219;23;20008;-55
2021/04/16 14:33:41;;;;;;;3.40;2.47;;;10.50;53.70;;;;;;6186852;23;20005;-55
2021/04/16 14:36:08;;;;;;;18.42;3.13;;;10.50;53.60;;;;;;6186598;23;20005;-55
2021/04/16 14:38:35;;;;;;;3.63;2.22;;;10.50;53.50;;;;;;6186414;23;19997;-55
2021/04/16 14:41:01;;;;;;;3.78;2.65;;;10.50;53.50;;;;;;6186665;23;20009;-55
2021/04/16 14:43:28;;;;;;;4.90;2.40;;;10.50;53.50;;;;;;6186938;23;20028;-55
2021/04/16 14:45:55;;;;;;;3.97;2.70;;;10.50;53.50;;;;;;6186665;23;20012;-55
2021/04/16 14:48:22;;;;;;;3.50;2.63;;;10.50;53.40;;;;;;6186336;23;20393;-55
2021/04/16 14:50:50;;;;;;;4.13;3.00;;;10.50;53.40;;;;;;6209530;23;20008;-55
2021/04/16 14:53:19;;;;;;;5.70;3.00;;;10.50;53.30;;;;;;6186831;23;20012;-55
2021/04/16 14:55:44;;;;;;;4.22;2.92;;;10.50;53.30;;;;;;6186582;23;20050;-55
2021/04/16 14:58:12;;;;;;;3.03;2.40;;;10.50;53.30;;;;;;6186840;23;20029;-55
2021/04/16 15:00:38;;;;;;;4.13;2.67;;;10.50;53.30;;;;;;6186264;23;20001;-55
2021/04/16 15:03:05;;;;;;;5.38;2.60;;;10.50;53.40;;;;;;6186156;23;20405;-56
2021/04/16 15:05:31;;;;;;;3.38;2.70;;;10.50;53.60;;;;;;6185748;23;20448;-56
2021/04/16 15:08:13;;;;;;;3.28;2.35;;;10.50;53.50;;;;;;6185950;23;20007;-56
2021/04/16 15:10:49;;;;;;;5.25;3.15;;;10.40;53.50;;;;;;6185196;23;20397;-55
2021/04/16 15:13:29;;;;;;;4.07;2.42;;;10.40;53.50;;;;;;6186102;23;20413;-55
2021/04/16 15:16:00;;;;;;;4.00;2.35;;;10.40;53.50;;;;;;6185916;23;20024;-56
2021/04/16 15:18:27;;;;;;;4.32;2.75;;;10.40;53.50;;;;;;6185045;23;20401;-55